Time;durP1;ratioP1;P1;durP2;ratioP2;P2;SDS_P1;SDS_P2;PMS_P1;PMS_P2;Temp;Humidity;BMP_temperature;BMP_pressure;BME280_temperature;BME280_humidity;BME280_pressure;Samples;Min_cycle;Max_cycle;Signal;HPM_P1;HPM_P2
2021/10/07 00:01:35;;;;;;;3.83;3.53;;;;;;;;;;5012702;28;20209;-78
2021/10/07 00:04:02;;;;;;;4.90;3.55;;;;;;;;;;5014625;28;20266;-77
2021/10/07 00:06:29;;;;;;;6.00;4.97;;;;;;;;;;5013687;28;20204;-76
2021/10/07 00:08:56;;;;;;;5.85;4.72;;;;;;;;;;5031123;28;20634;-76
2021/10/07 00:11:24;;;;;;;3.85;3.45;;;;;;;;;;5011445;28;20197;-76
2021/10/07 00:13:51;;;;;;;4.75;3.83;;;;;;;;;;5009996;28;20255;-76
2021/10/07 00:16:18;;;;;;;5.00;3.78;;;;;;;;;;5015051;28;20571;-77
2021/10/07 00:18:48;;;;;;;7.80;5.28;;;;;;;;;;5014438;28;20648;-76
2021/10/07 00:21:18;;;;;;;6.15;4.35;;;;;;;;;;5016321;28;20197;-76
2021/10/07 00:23:55;;;;;;;6.70;3.58;;;;;;;;;;5016747;28;20719;-76
2021/10/07 00:26:22;;;;;;;6.50;4.50;;;;;;;;;;5014711;28;20192;-76
2021/10/07 00:28:52;;;;;;;5.07;4.07;;;;;;;;;;5010408;28;20674;-76
2021/10/07 00:31:21;;;;;;;6.72;5.22;;;;;;;;;;5019465;28;20219;-76
2021/10/07 00:34:02;;;;;;;3.45;3.13;;;;;;;;;;5016669;28;20220;-76
2021/10/07 00:36:40;;;;;;;5.68;3.58;;;;;;;;;;5014217;28;20189;-76
2021/10/07 00:39:06;;;;;;;4.90;4.30;;;;;;;;;;5013072;28;20251;-76
2021/10/07 00:41:33;;;;;;;4.95;3.70;;;;;;;;;;5012924;28;20619;-78
2021/10/07 00:44:05;;;;;;;4.90;4.40;;;;;;;;;;5011754;28;20251;-75
2021/10/07 00:46:32;;;;;;;6.70;4.25;;;;;;;;;;5014318;28;20258;-76
2021/10/07 00:49:01;;;;;;;4.45;4.05;;;;;;;;;;5011550;28;20201;-76
2021/10/07 00:51:28;;;;;;;4.97;4.47;;;;;;;;;;5012844;28;20208;-76
2021/10/07 00:53:56;;;;;;;4.25;3.90;;;;;;;;;;5014287;28;20217;-75
2021/10/07 00:56:23;;;;;;;4.30;3.90;;;;;;;;;;5015752;28;20562;-75
2021/10/07 00:58:50;;;;;;;3.42;3.15;;;;;;;;;;5029803;28;20253;-76
2021/10/07 01:01:18;;;;;;;6.22;4.22;;;;;;;;;;5021025;28;20263;-76
2021/10/07 01:03:46;;;;;;;6.15;4.22;;;;;;;;;;5012860;28;20208;-76
2021/10/07 01:06:13;;;;;;;5.20;3.75;;;;;;;;;;5010811;28;20201;-77
2021/10/07 01:08:40;;;;;;;4.43;3.78;;;;;;;;;;5022385;28;20196;-77
2021/10/07 01:11:07;;;;;;;4.85;4.45;;;;;;;;;;5028188;28;20258;-77
2021/10/07 01:13:38;;;;;;;7.95;3.95;;;;;;;;;;5010188;28;20270;-76
2021/10/07 01:16:06;;;;;;;6.32;4.68;;;;;;;;;;5014430;28;20205;-76
2021/10/07 01:18:34;;;;;;;4.68;4.25;;;;;;;;;;5014671;28;20251;-78
2021/10/07 01:21:02;;;;;;;5.55;4.78;;;;;;;;;;5011626;28;20678;-78
2021/10/07 01:23:29;;;;;;;5.93;4.10;;;;;;;;;;5014332;28;20215;-78
2021/10/07 01:25:56;;;;;;;4.68;4.28;;;;;;;;;;5025022;28;20201;-78
2021/10/07 01:28:23;;;;;;;4.57;3.95;;;;;;;;;;4997599;28;20252;-77
2021/10/07 01:30:50;;;;;;;3.75;3.25;;;;;;;;;;5018688;28;20769;-78
2021/10/07 01:33:17;;;;;;;5.78;4.32;;;;;;;;;;5020995;28;20219;-78
2021/10/07 01:35:44;;;;;;;5.15;4.60;;;;;;;;;;5016948;28;20663;-78
2021/10/07 01:38:13;;;;;;;6.32;4.65;;;;;;;;;;5013270;28;20655;-77
2021/10/07 01:40:40;;;;;;;3.90;3.47;;;;;;;;;;5012670;28;20606;-78
2021/10/07 01:43:07;;;;;;;5.18;4.15;;;;;;;;;;5029952;28;20246;-78
2021/10/07 01:45:34;;;;;;;7.40;4.05;;;;;;;;;;5023474;28;20193;-78
2021/10/07 01:48:01;;;;;;;4.13;3.72;;;;;;;;;;5012285;28;20255;-78
2021/10/07 01:50:28;;;;;;;4.53;4.13;;;;;;;;;;5013869;28;20658;-78
2021/10/07 01:52:55;;;;;;;7.10;4.45;;;;;;;;;;5012128;28;20213;-78
2021/10/07 01:55:23;;;;;;;4.60;4.10;;;;;;;;;;5016803;28;20675;-78
2021/10/07 01:57:51;;;;;;;4.72;4.32;;;;;;;;;;4996450;28;20200;-78
2021/10/07 02:00:18;;;;;;;3.88;3.47;;;;;;;;;;4992991;28;20210;-78
2021/10/07 02:02:45;;;;;;;4.15;3.72;;;;;;;;;;5007745;28;20212;-78
2021/10/07 02:05:12;;;;;;;4.43;4.00;;;;;;;;;;5017644;28;20201;-78
2021/10/07 02:07:40;;;;;;;5.43;4.88;;;;;;;;;;5026929;28;20610;-78
2021/10/07 02:10:11;;;;;;;4.65;4.25;;;;;;;;;;5032373;28;20200;-79
2021/10/07 02:12:40;;;;;;;3.25;3.00;;;;;;;;;;5016151;28;20200;-78
2021/10/07 02:15:08;;;;;;;5.13;4.00;;;;;;;;;;5009972;28;20197;-79
2021/10/07 02:17:35;;;;;;;6.50;4.30;;;;;;;;;;5012467;28;20193;-77
2021/10/07 02:20:02;;;;;;;5.78;3.65;;;;;;;;;;5015663;28;20247;-77
2021/10/07 02:22:29;;;;;;;5.45;4.47;;;;;;;;;;4993219;28;20252;-77
2021/10/07 02:24:56;;;;;;;7.65;4.38;;;;;;;;;;5014735;28;20255;-76
2021/10/07 02:27:23;;;;;;;5.55;4.88;;;;;;;;;;5011746;28;20197;-77
2021/10/07 02:29:51;;;;;;;5.10;4.60;;;;;;;;;;5018410;28;20299;-74
2021/10/07 02:32:18;;;;;;;4.35;3.95;;;;;;;;;;5011039;28;20560;-75
2021/10/07 02:34:45;;;;;;;6.63;4.20;;;;;;;;;;5012210;28;20387;-73
2021/10/07 02:37:12;;;;;;;4.68;4.28;;;;;;;;;;5011534;28;20201;-75
2021/10/07 02:39:39;;;;;;;4.55;3.65;;;;;;;;;;5013886;28;20618;-74
2021/10/07 02:42:07;;;;;;;4.80;4.40;;;;;;;;;;5025495;28;20671;-75
2021/10/07 02:44:34;;;;;;;4.53;4.03;;;;;;;;;;5013521;28;20192;-76
2021/10/07 02:47:02;;;;;;;6.20;4.30;;;;;;;;;;5015989;28;20223;-74
2021/10/07 02:49:29;;;;;;;4.32;3.92;;;;;;;;;;5013041;28;20197;-75
2021/10/07 02:51:56;;;;;;;5.07;4.68;;;;;;;;;;5015548;28;20262;-75
2021/10/07 02:54:23;;;;;;;5.47;4.32;;;;;;;;;;5011719;28;20220;-76
2021/10/07 02:56:51;;;;;;;7.57;5.05;;;;;;;;;;5011631;28;20247;-75
2021/10/07 02:59:18;;;;;;;7.45;6.00;;;;;;;;;;5013948;28;20197;-75
2021/10/07 03:01:45;;;;;;;5.40;4.90;;;;;;;;;;5027361;28;20265;-76
2021/10/07 03:04:15;;;;;;;6.10;5.05;;;;;;;;;;5010259;28;20678;-75
2021/10/07 03:06:42;;;;;;;6.18;5.13;;;;;;;;;;4995034;28;20228;-74
2021/10/07 03:09:09;;;;;;;4.97;4.40;;;;;;;;;;5005005;28;20197;-76
2021/10/07 03:11:36;;;;;;;5.68;5.13;;;;;;;;;;5012095;28;20280;-74
2021/10/07 03:14:03;;;;;;;6.15;4.30;;;;;;;;;;5021955;28;20841;-74
2021/10/07 03:16:31;;;;;;;4.60;4.20;;;;;;;;;;5011676;28;20237;-75
2021/10/07 03:18:58;;;;;;;6.03;5.45;;;;;;;;;;5011044;28;20243;-75
2021/10/07 03:21:27;;;;;;;6.28;4.88;;;;;;;;;;5011249;28;20251;-75
2021/10/07 03:23:54;;;;;;;5.47;4.82;;;;;;;;;;5009732;28;20683;-76
2021/10/07 03:26:21;;;;;;;4.45;4.05;;;;;;;;;;5011022;28;20196;-75
2021/10/07 03:28:48;;;;;;;4.85;4.35;;;;;;;;;;5010348;28;20204;-75
2021/10/07 03:31:15;;;;;;;5.53;4.95;;;;;;;;;;5011799;28;20626;-75
2021/10/07 03:33:42;;;;;;;5.90;4.80;;;;;;;;;;5011433;28;20978;-75
2021/10/07 03:36:09;;;;;;;5.95;5.07;;;;;;;;;;5010939;28;20244;-76
2021/10/07 03:38:37;;;;;;;6.10;5.05;;;;;;;;;;4999404;28;20482;-76
2021/10/07 03:41:04;;;;;;;6.97;5.28;;;;;;;;;;5014427;28;20205;-76
2021/10/07 03:43:31;;;;;;;5.55;4.97;;;;;;;;;;5011119;28;20193;-75
2021/10/07 03:45:58;;;;;;;5.85;5.20;;;;;;;;;;5011767;28;20209;-77
2021/10/07 03:48:25;;;;;;;6.35;5.70;;;;;;;;;;5010655;28;20583;-77
2021/10/07 03:50:52;;;;;;;5.88;5.28;;;;;;;;;;5010359;28;20213;-76
2021/10/07 03:53:19;;;;;;;5.70;4.82;;;;;;;;;;5010890;28;20193;-75
2021/10/07 03:55:48;;;;;;;6.22;5.63;;;;;;;;;;5011847;28;20867;-75
2021/10/07 03:58:15;;;;;;;5.38;4.90;;;;;;;;;;5008725;28;20197;-76
2021/10/07 04:00:42;;;;;;;4.82;4.43;;;;;;;;;;5011544;28;20193;-74
2021/10/07 04:03:09;;;;;;;5.90;5.30;;;;;;;;;;5011446;28;20208;-76
2021/10/07 04:05:36;;;;;;;4.20;3.80;;;;;;;;;;5011042;28;20255;-74
2021/10/07 04:08:04;;;;;;;5.72;5.15;;;;;;;;;;5011075;28;20247;-76
2021/10/07 04:10:31;;;;;;;6.00;5.40;;;;;;;;;;5010434;28;20200;-74
2021/10/07 04:12:59;;;;;;;5.22;4.72;;;;;;;;;;5007080;28;20201;-74
2021/10/07 04:15:26;;;;;;;6.40;5.80;;;;;;;;;;5010538;28;20226;-76
2021/10/07 04:17:53;;;;;;;4.85;4.45;;;;;;;;;;5014106;28;20211;-75
2021/10/07 04:20:20;;;;;;;5.60;5.10;;;;;;;;;;5010633;28;20204;-75
2021/10/07 04:22:47;;;;;;;5.97;5.32;;;;;;;;;;5014355;28;20197;-76
2021/10/07 04:25:14;;;;;;;6.30;5.70;;;;;;;;;;5014239;28;20624;-74
2021/10/07 04:27:41;;;;;;;5.28;4.78;;;;;;;;;;5004535;28;20216;-77
2021/10/07 04:30:11;;;;;;;4.68;4.28;;;;;;;;;;5003553;28;20684;-75
2021/10/07 04:32:38;;;;;;;6.18;5.45;;;;;;;;;;5013293;28;20205;-76
2021/10/07 04:35:05;;;;;;;6.10;5.50;;;;;;;;;;5011146;28;20247;-75
2021/10/07 04:37:32;;;;;;;4.30;3.90;;;;;;;;;;5012596;28;20259;-75
2021/10/07 04:39:59;;;;;;;4.40;4.03;;;;;;;;;;5014227;28;20201;-75
2021/10/07 04:42:26;;;;;;;3.88;3.50;;;;;;;;;;5013866;28;20228;-74
2021/10/07 04:44:53;;;;;;;5.90;4.45;;;;;;;;;;5018907;28;20247;-75
2021/10/07 04:47:22;;;;;;;5.07;4.47;;;;;;;;;;5014038;28;20255;-76
2021/10/07 04:49:49;;;;;;;4.90;4.35;;;;;;;;;;5013399;28;20270;-75
2021/10/07 04:52:16;;;;;;;5.60;5.03;;;;;;;;;;5012101;28;20251;-76
2021/10/07 04:54:43;;;;;;;6.18;4.82;;;;;;;;;;4996116;28;20224;-76
2021/10/07 04:57:10;;;;;;;5.40;4.00;;;;;;;;;;5012902;28;20655;-75
2021/10/07 04:59:37;;;;;;;4.40;3.90;;;;;;;;;;5017758;28;20263;-75
2021/10/07 05:02:04;;;;;;;6.55;4.70;;;;;;;;;;5014280;28;20659;-74
2021/10/07 05:04:33;;;;;;;4.82;4.10;;;;;;;;;;5014595;28;20200;-76
2021/10/07 05:07:00;;;;;;;6.15;5.45;;;;;;;;;;5014279;28;20205;-75
2021/10/07 05:09:27;;;;;;;5.20;4.75;;;;;;;;;;5014326;28;20271;-76
2021/10/07 05:11:54;;;;;;;6.18;5.57;;;;;;;;;;5013070;28;20204;-75
2021/10/07 05:14:21;;;;;;;7.65;6.65;;;;;;;;;;5020314;28;20228;-74
2021/10/07 05:16:48;;;;;;;5.38;4.88;;;;;;;;;;5016853;28;20639;-75
2021/10/07 05:19:15;;;;;;;5.30;4.82;;;;;;;;;;5014714;28;20251;-77
2021/10/07 05:21:43;;;;;;;5.30;4.65;;;;;;;;;;5016724;28;20197;-75
2021/10/07 05:24:10;;;;;;;5.03;4.53;;;;;;;;;;5004649;28;20255;-75
2021/10/07 05:26:37;;;;;;;5.80;4.88;;;;;;;;;;5018249;28;20721;-76
2021/10/07 05:29:04;;;;;;;8.00;6.72;;;;;;;;;;5013676;28;20258;-75
2021/10/07 05:31:31;;;;;;;11.60;7.50;;;;;;;;;;5024775;28;20271;-74
2021/10/07 05:33:58;;;;;;;8.25;7.07;;;;;;;;;;5012575;28;20216;-75
2021/10/07 05:36:25;;;;;;;7.55;6.63;;;;;;;;;;5008490;28;20200;-74
2021/10/07 05:38:54;;;;;;;8.93;7.53;;;;;;;;;;5013189;28;20705;-75
2021/10/07 05:41:21;;;;;;;7.53;6.82;;;;;;;;;;5013026;28;20646;-75
2021/10/07 05:43:48;;;;;;;7.88;6.75;;;;;;;;;;5013023;28;20227;-76
2021/10/07 05:46:15;;;;;;;6.85;5.35;;;;;;;;;;5012663;28;20659;-74
2021/10/07 05:48:42;;;;;;;5.80;5.20;;;;;;;;;;5012997;28;20721;-76
2021/10/07 05:51:09;;;;;;;7.70;6.82;;;;;;;;;;5013973;28;20205;-74
2021/10/07 05:53:36;;;;;;;8.90;7.18;;;;;;;;;;5012565;28;20610;-75
2021/10/07 05:56:06;;;;;;;8.25;6.85;;;;;;;;;;5032793;28;20224;-75
2021/10/07 05:58:33;;;;;;;8.30;7.47;;;;;;;;;;5012416;28;20193;-74
2021/10/07 06:01:00;;;;;;;7.30;6.15;;;;;;;;;;5012729;28;20200;-74
2021/10/07 06:03:27;;;;;;;5.88;5.18;;;;;;;;;;5012961;28;20204;-75
2021/10/07 06:05:54;;;;;;;6.22;5.43;;;;;;;;;;5020066;28;20196;-74
2021/10/07 06:08:21;;;;;;;6.63;5.55;;;;;;;;;;5025419;28;20651;-74
2021/10/07 06:10:48;;;;;;;5.68;5.13;;;;;;;;;;5012438;28;20208;-75
2021/10/07 06:13:16;;;;;;;7.10;5.30;;;;;;;;;;5011852;28;20266;-75
2021/10/07 06:15:43;;;;;;;7.00;6.10;;;;;;;;;;5012630;28;20221;-75
2021/10/07 06:18:10;;;;;;;7.60;6.80;;;;;;;;;;5012818;28;20205;-74
2021/10/07 06:20:38;;;;;;;6.35;5.60;;;;;;;;;;5011430;28;20200;-75
2021/10/07 06:23:05;;;;;;;5.88;5.28;;;;;;;;;;5013993;28;20208;-76
2021/10/07 06:25:34;;;;;;;7.57;6.78;;;;;;;;;;5012974;28;20192;-75
2021/10/07 06:28:01;;;;;;;8.27;6.20;;;;;;;;;;5015338;28;20196;-76
2021/10/07 06:30:30;;;;;;;8.77;7.32;;;;;;;;;;5018944;28;20217;-75
2021/10/07 06:32:58;;;;;;;8.25;6.40;;;;;;;;;;5014693;28;20197;-77
2021/10/07 06:35:25;;;;;;;5.25;4.75;;;;;;;;;;5013403;28;20591;-77
2021/10/07 06:37:53;;;;;;;5.70;4.85;;;;;;;;;;5030331;28;20200;-77
2021/10/07 06:40:20;;;;;;;8.68;7.00;;;;;;;;;;5020177;28;20203;-78
2021/10/07 06:42:47;;;;;;;7.13;5.97;;;;;;;;;;5010874;28;20256;-79
2021/10/07 06:45:14;;;;;;;6.72;6.03;;;;;;;;;;5023636;28;20197;-78
2021/10/07 06:47:43;;;;;;;6.95;6.05;;;;;;;;;;5012188;28;20462;-76
2021/10/07 06:50:11;;;;;;;10.18;7.85;;;;;;;;;;5011648;28;20215;-78
2021/10/07 06:52:41;;;;;;;7.50;6.03;;;;;;;;;;5010001;28;20197;-78
2021/10/07 06:55:10;;;;;;;6.68;5.20;;;;;;;;;;5030867;28;20265;-77
2021/10/07 06:57:37;;;;;;;7.50;6.00;;;;;;;;;;5007523;28;20644;-75
2021/10/07 07:00:04;;;;;;;6.85;6.05;;;;;;;;;;5010454;28;20651;-76
2021/10/07 07:02:31;;;;;;;8.50;6.20;;;;;;;;;;5019176;28;20197;-75
2021/10/07 07:05:01;;;;;;;9.35;7.20;;;;;;;;;;5021261;28;20195;-77
2021/10/07 07:07:28;;;;;;;8.70;6.72;;;;;;;;;;5010443;28;20196;-76
2021/10/07 07:09:55;;;;;;;8.65;6.25;;;;;;;;;;5014841;28;20216;-75
2021/10/07 07:12:23;;;;;;;9.63;7.82;;;;;;;;;;5009274;28;20205;-77
2021/10/07 07:14:50;;;;;;;10.07;6.80;;;;;;;;;;5009469;28;20235;-75
2021/10/07 07:17:17;;;;;;;9.18;6.60;;;;;;;;;;5012680;28;20200;-77
2021/10/07 07:19:44;;;;;;;7.35;5.68;;;;;;;;;;5022596;28;20201;-76
2021/10/07 07:22:14;;;;;;;8.30;6.10;;;;;;;;;;5010219;28;20259;-80
2021/10/07 07:24:41;;;;;;;10.35;7.43;;;;;;;;;;5010960;28;20230;-80
2021/10/07 07:27:11;;;;;;;7.10;5.85;;;;;;;;;;5008407;28;20208;-79
2021/10/07 07:29:38;;;;;;;12.35;8.27;;;;;;;;;;5011146;28;20222;-80
2021/10/07 07:32:05;;;;;;;11.63;9.15;;;;;;;;;;5013297;28;20204;-78
2021/10/07 07:34:32;;;;;;;11.02;7.88;;;;;;;;;;5012229;28;20260;-76
2021/10/07 07:36:59;;;;;;;9.38;7.10;;;;;;;;;;5010615;28;20205;-78
2021/10/07 07:39:28;;;;;;;10.65;8.18;;;;;;;;;;5009609;28;20585;-75
2021/10/07 07:41:55;;;;;;;10.55;8.40;;;;;;;;;;5009155;28;20212;-75
2021/10/07 07:44:22;;;;;;;12.43;9.00;;;;;;;;;;5012009;28;20209;-76
2021/10/07 07:46:49;;;;;;;9.60;7.35;;;;;;;;;;5005838;28;20197;-76
2021/10/07 07:49:16;;;;;;;10.57;7.00;;;;;;;;;;5015528;28;20201;-77
2021/10/07 07:51:43;;;;;;;14.75;9.63;;;;;;;;;;5014449;28;20686;-76
2021/10/07 07:54:10;;;;;;;11.50;8.15;;;;;;;;;;5027049;28;20696;-76
2021/10/07 07:56:39;;;;;;;14.25;9.80;;;;;;;;;;5014462;28;20235;-75
2021/10/07 07:59:08;;;;;;;11.93;9.18;;;;;;;;;;5013429;28;20201;-75
2021/10/07 08:01:36;;;;;;;16.35;9.25;;;;;;;;;;5015334;28;20211;-77
2021/10/07 08:04:03;;;;;;;12.93;10.02;;;;;;;;;;5014225;28;20205;-77
2021/10/07 08:06:32;;;;;;;15.70;10.05;;;;;;;;;;5017548;28;20200;-76
2021/10/07 08:08:59;;;;;;;11.27;8.13;;;;;;;;;;5019099;28;20201;-76
2021/10/07 08:11:26;;;;;;;15.63;10.13;;;;;;;;;;5015021;28;20196;-78
2021/10/07 08:13:55;;;;;;;10.85;7.65;;;;;;;;;;5016897;28;20201;-76
2021/10/07 08:16:22;;;;;;;12.43;9.57;;;;;;;;;;5017332;28;20220;-77
2021/10/07 08:18:49;;;;;;;8.50;7.07;;;;;;;;;;5014109;28;20605;-76
2021/10/07 08:21:16;;;;;;;9.25;6.50;;;;;;;;;;5012461;28;20205;-75
2021/10/07 08:23:43;;;;;;;10.50;7.70;;;;;;;;;;5030770;28;20208;-75
2021/10/07 08:26:11;;;;;;;11.15;8.77;;;;;;;;;;5034556;28;20196;-76
2021/10/07 08:28:38;;;;;;;14.90;8.60;;;;;;;;;;5015330;28;20479;-76
2021/10/07 08:31:07;;;;;;;13.65;8.73;;;;;;;;;;5013892;28;20209;-76
2021/10/07 08:33:34;;;;;;;14.55;8.93;;;;;;;;;;5012651;28;20196;-77
2021/10/07 08:36:01;;;;;;;10.55;9.13;;;;;;;;;;5015624;28;20287;-77
2021/10/07 08:38:29;;;;;;;13.77;8.90;;;;;;;;;;5013038;28;20710;-76
2021/10/07 08:40:56;;;;;;;10.57;8.15;;;;;;;;;;5013814;28;20207;-75
2021/10/07 08:43:25;;;;;;;18.20;11.50;;;;;;;;;;4998773;28;20213;-76
2021/10/07 08:45:52;;;;;;;16.08;12.05;;;;;;;;;;5006549;28;20228;-74
2021/10/07 08:48:21;;;;;;;16.42;11.63;;;;;;;;;;5013832;28;20240;-76
2021/10/07 08:50:48;;;;;;;16.65;10.43;;;;;;;;;;5019263;28;20266;-77
2021/10/07 08:53:15;;;;;;;15.45;10.70;;;;;;;;;;5013768;28;20603;-75
2021/10/07 08:55:42;;;;;;;16.55;10.68;;;;;;;;;;5014089;28;20727;-76
2021/10/07 08:58:11;;;;;;;16.45;12.50;;;;;;;;;;5013125;28;20189;-75
2021/10/07 09:00:38;;;;;;;15.38;10.70;;;;;;;;;;5023397;28;20292;-76
2021/10/07 09:03:19;;;;;;;15.23;11.50;;;;;;;;;;5013574;28;20263;-76
2021/10/07 09:05:47;;;;;;;20.52;13.32;;;;;;;;;;5008747;28;20358;-76
2021/10/07 09:08:15;;;;;;;16.90;11.65;;;;;;;;;;5010361;28;20204;-75
2021/10/07 09:10:45;;;;;;;18.20;11.50;;;;;;;;;;5014911;28;21851;-76
2021/10/07 09:13:14;;;;;;;12.43;9.55;;;;;;;;;;5025235;28;20246;-75
2021/10/07 09:15:42;;;;;;;12.85;8.93;;;;;;;;;;5025013;28;20233;-76
2021/10/07 09:18:10;;;;;;;10.52;7.15;;;;;;;;;;5012431;28;20201;-75
2021/10/07 09:20:38;;;;;;;11.07;8.60;;;;;;;;;;5013445;28;20200;-76
2021/10/07 09:23:07;;;;;;;13.52;8.95;;;;;;;;;;4994186;28;20256;-77
2021/10/07 09:25:49;;;;;;;8.73;6.43;;;;;;;;;;5012869;28;20204;-76
2021/10/07 09:28:16;;;;;;;8.98;6.43;;;;;;;;;;5006623;28;20251;-76
2021/10/07 09:30:45;;;;;;;10.98;6.70;;;;;;;;;;5009143;28;20220;-78
2021/10/07 09:33:12;;;;;;;10.13;8.07;;;;;;;;;;5013617;28;20255;-76
2021/10/07 09:35:39;;;;;;;11.98;7.40;;;;;;;;;;5012131;28;20217;-78
2021/10/07 09:38:07;;;;;;;9.95;7.18;;;;;;;;;;5011997;28;20201;-76
2021/10/07 09:40:34;;;;;;;8.10;6.35;;;;;;;;;;5016212;28;20204;-77
2021/10/07 09:43:03;;;;;;;8.35;6.38;;;;;;;;;;5012087;28;20212;-77
2021/10/07 09:45:30;;;;;;;9.65;7.03;;;;;;;;;;5012827;28;20192;-75
2021/10/07 09:48:00;;;;;;;10.73;6.88;;;;;;;;;;5023027;28;20243;-76
2021/10/07 09:50:28;;;;;;;9.20;7.05;;;;;;;;;;5015388;28;20197;-75
2021/10/07 09:52:59;;;;;;;8.93;6.20;;;;;;;;;;5009264;28;20574;-76
2021/10/07 09:55:28;;;;;;;10.63;8.90;;;;;;;;;;5017035;28;20224;-75
2021/10/07 09:57:57;;;;;;;10.45;8.50;;;;;;;;;;5011299;28;20247;-76
2021/10/07 10:00:26;;;;;;;12.93;7.30;;;;;;;;;;5008475;28;20594;-75
2021/10/07 10:02:54;;;;;;;7.88;7.07;;;;;;;;;;5012114;28;20291;-77
2021/10/07 10:05:21;;;;;;;10.80;7.03;;;;;;;;;;5016016;28;20356;-75
2021/10/07 10:07:48;;;;;;;12.40;9.15;;;;;;;;;;5006520;28;20236;-76
2021/10/07 10:10:15;;;;;;;10.82;8.60;;;;;;;;;;5010892;28;20253;-76
2021/10/07 10:12:44;;;;;;;9.73;6.30;;;;;;;;;;5015054;28;20200;-74
2021/10/07 10:15:12;;;;;;;17.88;7.78;;;;;;;;;;5010525;28;20200;-74
2021/10/07 10:17:39;;;;;;;10.50;7.05;;;;;;;;;;5009709;28;20201;-75
2021/10/07 10:20:08;;;;;;;10.43;8.00;;;;;;;;;;5010597;28;20205;-74
2021/10/07 10:22:35;;;;;;;9.35;6.57;;;;;;;;;;5010615;28;20205;-74
2021/10/07 10:25:02;;;;;;;12.13;8.60;;;;;;;;;;5009393;28;20204;-74
2021/10/07 10:27:44;;;;;;;9.02;6.95;;;;;;;;;;5009520;28;20627;-73
2021/10/07 10:30:25;;;;;;;9.95;7.00;;;;;;;;;;5010381;28;20235;-77
2021/10/07 10:32:53;;;;;;;10.95;6.60;;;;;;;;;;5011048;28;20212;-77
2021/10/07 10:35:33;;;;;;;8.13;7.22;;;;;;;;;;5010101;28;20271;-74
2021/10/07 10:38:01;;;;;;;10.93;7.28;;;;;;;;;;5010774;28;20201;-76
2021/10/07 10:40:28;;;;;;;8.90;6.43;;;;;;;;;;5014819;28;20204;-76
2021/10/07 10:43:10;;;;;;;10.50;7.55;;;;;;;;;;5000244;28;20675;-77
2021/10/07 10:45:45;;;;;;;10.02;7.15;;;;;;;;;;5008599;28;20611;-77
2021/10/07 10:48:12;;;;;;;9.35;8.15;;;;;;;;;;5010938;28;20201;-75
2021/10/07 10:50:39;;;;;;;12.68;7.63;;;;;;;;;;5009530;28;20209;-76
2021/10/07 10:53:22;;;;;;;9.85;7.85;;;;;;;;;;5010002;28;20674;-76
2021/10/07 10:55:51;;;;;;;10.07;7.47;;;;;;;;;;5010962;28;20259;-76
2021/10/07 10:58:18;;;;;;;9.57;7.32;;;;;;;;;;5006383;28;20267;-76
2021/10/07 11:00:48;;;;;;;9.85;6.82;;;;;;;;;;5009577;28;20681;-76
2021/10/07 11:03:18;;;;;;;10.65;7.50;;;;;;;;;;5010725;28;20203;-75
2021/10/07 11:05:55;;;;;;;8.50;6.80;;;;;;;;;;5002077;28;20197;-75
2021/10/07 11:08:23;;;;;;;7.45;6.82;;;;;;;;;;4998585;28;20201;-75
2021/10/07 11:10:50;;;;;;;9.10;6.35;;;;;;;;;;5006075;28;20205;-76
2021/10/07 11:13:18;;;;;;;7.88;7.05;;;;;;;;;;5010816;28;20280;-76
2021/10/07 11:15:49;;;;;;;8.70;6.78;;;;;;;;;;5013504;28;20281;-75
2021/10/07 11:18:16;;;;;;;8.48;6.90;;;;;;;;;;5009904;28;20205;-75
2021/10/07 11:20:44;;;;;;;6.95;5.78;;;;;;;;;;5016019;28;20243;-74
2021/10/07 11:23:15;;;;;;;10.68;6.10;;;;;;;;;;5013284;28;20549;-75
2021/10/07 11:25:43;;;;;;;8.02;5.88;;;;;;;;;;5013672;28;20702;-74
2021/10/07 11:28:10;;;;;;;6.85;4.82;;;;;;;;;;5016789;28;20282;-74
2021/10/07 11:30:40;;;;;;;5.38;4.80;;;;;;;;;;5014715;28;20298;-75
2021/10/07 11:33:08;;;;;;;7.53;6.10;;;;;;;;;;5014297;28;20201;-75
2021/10/07 11:35:36;;;;;;;7.57;5.63;;;;;;;;;;5008541;28;20734;-74
2021/10/07 11:38:05;;;;;;;8.52;6.30;;;;;;;;;;5003744;28;20287;-74
2021/10/07 11:40:34;;;;;;;8.38;6.63;;;;;;;;;;5019263;28;20674;-75
2021/10/07 11:43:02;;;;;;;9.15;5.97;;;;;;;;;;5019144;28;20575;-75
2021/10/07 11:45:30;;;;;;;5.93;5.05;;;;;;;;;;5033121;28;20204;-74
2021/10/07 11:47:59;;;;;;;12.45;6.75;;;;;;;;;;5015610;28;20254;-75
2021/10/07 11:50:28;;;;;;;7.45;5.90;;;;;;;;;;5015837;28;20253;-74
2021/10/07 11:52:57;;;;;;;8.20;5.88;;;;;;;;;;5023449;28;20208;-74
2021/10/07 11:55:25;;;;;;;8.07;6.05;;;;;;;;;;5014670;28;20251;-76
2021/10/07 11:57:53;;;;;;;7.32;5.72;;;;;;;;;;5009898;28;20258;-76
2021/10/07 12:00:39;;;;;;;6.50;5.80;;;;;;;;;;5016783;28;20200;-76
2021/10/07 12:03:07;;;;;;;7.40;5.72;;;;;;;;;;5009317;28;20549;-75
2021/10/07 12:05:35;;;;;;;5.70;5.10;;;;;;;;;;5021461;28;20197;-77
2021/10/07 12:08:02;;;;;;;5.55;4.95;;;;;;;;;;5015130;28;20247;-77
2021/10/07 12:10:33;;;;;;;7.90;6.22;;;;;;;;;;5015646;28;20203;-78
2021/10/07 12:13:07;;;;;;;6.15;5.05;;;;;;;;;;5015806;28;20197;-76
2021/10/07 12:15:34;;;;;;;6.03;5.43;;;;;;;;;;5012599;28;20783;-77
2021/10/07 12:18:02;;;;;;;5.97;5.18;;;;;;;;;;5019162;28;20671;-76
2021/10/07 12:20:29;;;;;;;5.60;4.78;;;;;;;;;;5014444;28;20567;-76
2021/10/07 12:23:02;;;;;;;6.15;5.55;;;;;;;;;;5027251;28;20201;-76
2021/10/07 12:25:29;;;;;;;5.07;4.57;;;;;;;;;;5018300;28;20680;-75
2021/10/07 12:28:03;;;;;;;6.38;4.90;;;;;;;;;;5012121;28;20197;-76
2021/10/07 12:30:30;;;;;;;6.22;5.50;;;;;;;;;;5014422;28;20240;-76
2021/10/07 12:33:12;;;;;;;4.68;4.28;;;;;;;;;;4994628;28;20212;-76
2021/10/07 12:35:40;;;;;;;5.15;4.30;;;;;;;;;;5012704;28;20258;-76
2021/10/07 12:38:08;;;;;;;5.93;4.60;;;;;;;;;;5014767;28;20237;-76
2021/10/07 12:40:35;;;;;;;5.22;4.72;;;;;;;;;;5017986;28;20242;-76
2021/10/07 12:43:14;;;;;;;6.70;5.88;;;;;;;;;;5010988;28;20595;-76
2021/10/07 12:45:56;;;;;;;6.90;5.68;;;;;;;;;;5013910;28;20280;-77
2021/10/07 12:48:23;;;;;;;5.00;4.50;;;;;;;;;;5013299;28;20336;-76
2021/10/07 12:50:50;;;;;;;5.28;4.75;;;;;;;;;;5011182;28;20239;-75
2021/10/07 12:53:18;;;;;;;6.65;5.18;;;;;;;;;;5012818;28;20415;-75
2021/10/07 12:55:45;;;;;;;6.82;6.13;;;;;;;;;;5013773;28;20579;-76
2021/10/07 12:58:24;;;;;;;6.47;4.75;;;;;;;;;;5010571;28;20221;-76
2021/10/07 13:00:51;;;;;;;6.97;4.85;;;;;;;;;;5024779;28;20711;-76
2021/10/07 13:03:20;;;;;;;5.28;4.65;;;;;;;;;;5022280;28;20246;-76
2021/10/07 13:05:48;;;;;;;10.45;5.25;;;;;;;;;;5012673;28;20216;-76
2021/10/07 13:08:16;;;;;;;5.25;4.75;;;;;;;;;;5013037;28;20296;-76
2021/10/07 13:10:45;;;;;;;6.10;4.97;;;;;;;;;;5010867;28;20193;-76
2021/10/07 13:13:13;;;;;;;5.03;4.45;;;;;;;;;;5013363;28;20295;-76
2021/10/07 13:15:41;;;;;;;8.27;4.43;;;;;;;;;;5013099;28;20208;-76
2021/10/07 13:18:09;;;;;;;5.88;4.93;;;;;;;;;;5011570;28;20217;-75
2021/10/07 13:20:36;;;;;;;6.97;5.50;;;;;;;;;;5013159;28;20712;-76
2021/10/07 13:23:03;;;;;;;6.60;4.70;;;;;;;;;;5011277;28;20216;-77
2021/10/07 13:25:32;;;;;;;8.13;5.45;;;;;;;;;;5010854;28;20275;-77
2021/10/07 13:28:01;;;;;;;6.18;4.75;;;;;;;;;;5002093;28;20546;-76
2021/10/07 13:30:29;;;;;;;8.02;5.40;;;;;;;;;;5013316;28;20730;-77
2021/10/07 13:32:56;;;;;;;7.70;5.85;;;;;;;;;;5011042;28;20620;-78
2021/10/07 13:35:24;;;;;;;5.70;5.10;;;;;;;;;;5012361;28;20193;-76
2021/10/07 13:37:52;;;;;;;7.57;5.88;;;;;;;;;;5011447;28;20259;-77
2021/10/07 13:40:19;;;;;;;5.40;4.70;;;;;;;;;;5027048;28;20215;-76
2021/10/07 13:42:46;;;;;;;5.80;4.97;;;;;;;;;;5021930;28;20561;-76
2021/10/07 13:45:16;;;;;;;6.45;5.82;;;;;;;;;;5011524;28;20276;-76
2021/10/07 13:47:43;;;;;;;5.40;4.47;;;;;;;;;;5008609;28;20659;-78
2021/10/07 13:50:11;;;;;;;6.50;5.45;;;;;;;;;;5010663;28;20201;-78
2021/10/07 13:52:38;;;;;;;6.97;5.03;;;;;;;;;;5013127;28;20660;-79
2021/10/07 13:55:05;;;;;;;5.40;4.10;;;;;;;;;;5018680;28;20303;-79
2021/10/07 13:57:33;;;;;;;6.75;4.13;;;;;;;;;;5007128;28;20679;-79
2021/10/07 14:00:00;;;;;;;9.93;5.60;;;;;;;;;;5006811;28;20282;-79
2021/10/07 14:02:28;;;;;;;6.45;5.70;;;;;;;;;;5011639;28;20197;-77
2021/10/07 14:04:55;;;;;;;7.28;5.15;;;;;;;;;;5014127;28;20698;-78
2021/10/07 14:07:22;;;;;;;6.40;5.35;;;;;;;;;;5010791;28;20193;-77
2021/10/07 14:09:49;;;;;;;5.70;5.10;;;;;;;;;;5011900;28;20263;-77
2021/10/07 14:12:16;;;;;;;6.95;5.75;;;;;;;;;;5019317;28;20197;-77
2021/10/07 14:14:43;;;;;;;8.13;5.88;;;;;;;;;;5012482;28;20205;-76
2021/10/07 14:17:10;;;;;;;10.02;6.18;;;;;;;;;;5014067;28;20208;-76
2021/10/07 14:19:38;;;;;;;6.63;5.70;;;;;;;;;;5012374;28;20197;-77
2021/10/07 14:22:05;;;;;;;6.97;6.28;;;;;;;;;;5011913;28;20446;-76
2021/10/07 14:24:32;;;;;;;6.65;5.90;;;;;;;;;;5014556;28;20671;-76
2021/10/07 14:27:01;;;;;;;6.00;5.28;;;;;;;;;;5011848;28;20197;-76
2021/10/07 14:29:28;;;;;;;6.85;5.00;;;;;;;;;;5012467;28;20288;-76
2021/10/07 14:31:55;;;;;;;5.20;4.70;;;;;;;;;;4992511;28;20623;-77
2021/10/07 14:34:22;;;;;;;5.53;5.03;;;;;;;;;;5022112;28;20200;-77
2021/10/07 14:36:51;;;;;;;5.30;4.78;;;;;;;;;;5010265;28;20674;-76
2021/10/07 14:39:18;;;;;;;6.05;5.50;;;;;;;;;;5015364;28;20197;-77
2021/10/07 14:41:45;;;;;;;5.90;5.30;;;;;;;;;;5014013;28;20189;-77
2021/10/07 14:44:12;;;;;;;6.20;5.43;;;;;;;;;;5012423;28;20602;-77
2021/10/07 14:46:40;;;;;;;6.00;5.20;;;;;;;;;;5012298;28;20204;-76